Time;durP1;ratioP1;P1;durP2;ratioP2;P2;SDS_P1;SDS_P2;PMS_P1;PMS_P2;Temp;Humidity;BMP_temperature;BMP_pressure;BME280_temperature;BME280_humidity;BME280_pressure;Samples;Min_cycle;Max_cycle;Signal;HPM_P1;HPM_P2
2024/01/09 00:00:23;;;;;;;23.40;8.87;;;;;;;;;;5073370;28;20295;-81
2024/01/09 00:03:10;;;;;;;29.80;10.90;;;;;;;;;;5073482;28;20649;-81
2024/01/09 00:05:37;;;;;;;27.70;9.77;;;;;;;;;;5074202;28;20196;-81
2024/01/09 00:08:05;;;;;;;26.23;11.17;;;;;;;;;;5057169;28;20192;-81
2024/01/09 00:10:32;;;;;;;35.47;11.43;;;;;;;;;;5074308;28;20218;-82
2024/01/09 00:12:59;;;;;;;30.70;10.40;;;;;;;;;;5073020;28;20195;-81
2024/01/09 00:15:26;;;;;;;26.67;11.60;;;;;;;;;;5074012;28;20203;-80
2024/01/09 00:17:53;;;;;;;36.30;10.87;;;;;;;;;;5074065;28;20195;-81
2024/01/09 00:20:21;;;;;;;30.30;11.53;;;;;;;;;;5073783;28;20199;-80
2024/01/09 00:22:48;;;;;;;37.07;12.73;;;;;;;;;;5073489;28;20199;-81
2024/01/09 00:25:16;;;;;;;34.53;12.10;;;;;;;;;;5073157;28;20700;-79
2024/01/09 00:27:46;;;;;;;30.43;11.87;;;;;;;;;;5055375;28;20564;-80
2024/01/09 00:30:13;;;;;;;37.60;11.93;;;;;;;;;;5073016;28;20270;-79
2024/01/09 00:32:46;;;;;;;31.80;12.17;;;;;;;;;;5072770;28;20211;-79
2024/01/09 00:35:14;;;;;;;32.40;11.57;;;;;;;;;;5072559;28;20231;-79
2024/01/09 00:37:42;;;;;;;41.00;13.47;;;;;;;;;;5071452;28;20215;-79
2024/01/09 00:40:09;;;;;;;37.73;13.80;;;;;;;;;;5074382;28;20249;-88
2024/01/09 00:42:36;;;;;;;42.40;12.67;;;;;;;;;;5072445;28;20282;-88
2024/01/09 00:45:06;;;;;;;42.77;13.53;;;;;;;;;;5073377;28;20199;-79
2024/01/09 00:47:33;;;;;;;38.70;12.50;;;;;;;;;;5072782;28;20203;-78
2024/01/09 00:50:00;;;;;;;36.77;12.10;;;;;;;;;;5074202;28;20231;-79
2024/01/09 00:52:28;;;;;;;36.57;11.40;;;;;;;;;;5071715;28;20203;-79
2024/01/09 00:54:55;;;;;;;30.23;11.93;;;;;;;;;;5072783;28;20195;-79
2024/01/09 00:57:22;;;;;;;35.60;11.70;;;;;;;;;;5071151;28;20200;-79
2024/01/09 00:59:49;;;;;;;25.70;11.63;;;;;;;;;;5072238;28;20234;-79
2024/01/09 01:02:16;;;;;;;30.17;11.97;;;;;;;;;;5072851;28;20253;-80
2024/01/09 01:04:43;;;;;;;27.60;11.83;;;;;;;;;;5071666;28;20199;-79
2024/01/09 01:07:11;;;;;;;47.50;14.00;;;;;;;;;;5072690;28;20199;-79
2024/01/09 01:09:38;;;;;;;41.93;14.53;;;;;;;;;;5072302;28;20562;-79
2024/01/09 01:12:05;;;;;;;51.03;15.03;;;;;;;;;;5072996;28;20192;-88
2024/01/09 01:14:32;;;;;;;38.67;14.90;;;;;;;;;;5072269;28;20608;-83
2024/01/09 01:16:59;;;;;;;49.77;16.20;;;;;;;;;;5073629;28;20260;-81
2024/01/09 01:19:27;;;;;;;37.73;14.20;;;;;;;;;;5074522;28;20644;-81
2024/01/09 01:21:54;;;;;;;36.73;12.93;;;;;;;;;;5074339;28;20191;-81
2024/01/09 01:24:21;;;;;;;27.47;12.07;;;;;;;;;;5073369;28;20206;-81
2024/01/09 01:26:49;;;;;;;47.47;14.87;;;;;;;;;;5073268;28;20195;-81
2024/01/09 01:29:16;;;;;;;34.87;12.63;;;;;;;;;;5072208;28;20215;-81
2024/01/09 01:31:45;;;;;;;42.57;13.33;;;;;;;;;;5073212;28;20218;-80
2024/01/09 01:34:12;;;;;;;28.23;10.43;;;;;;;;;;5072289;28;20234;-81
2024/01/09 01:36:40;;;;;;;33.20;12.83;;;;;;;;;;5072878;28;20541;-80
2024/01/09 01:39:07;;;;;;;27.47;10.63;;;;;;;;;;5072212;28;20199;-80
2024/01/09 01:41:35;;;;;;;34.00;11.87;;;;;;;;;;5072641;28;20257;-81
2024/01/09 01:44:13;;;;;;;34.47;12.03;;;;;;;;;;5072387;28;20631;-80
2024/01/09 01:46:41;;;;;;;42.30;12.53;;;;;;;;;;5073507;28;20541;-81
2024/01/09 01:49:08;;;;;;;36.07;12.50;;;;;;;;;;5059255;28;20219;-81
2024/01/09 01:51:36;;;;;;;51.47;12.60;;;;;;;;;;5076035;28;20199;-81
2024/01/09 01:54:03;;;;;;;29.13;11.10;;;;;;;;;;5075483;28;20196;-80
2024/01/09 01:56:30;;;;;;;22.43;9.57;;;;;;;;;;5076095;28;20195;-79
2024/01/09 01:58:58;;;;;;;29.03;11.47;;;;;;;;;;5075229;28;20195;-80
2024/01/09 02:01:25;;;;;;;29.47;11.20;;;;;;;;;;5076098;28;20214;-80
2024/01/09 02:03:52;;;;;;;28.73;10.60;;;;;;;;;;5074770;28;20683;-80
2024/01/09 02:06:20;;;;;;;25.73;9.77;;;;;;;;;;5075019;28;20195;-80
2024/01/09 02:08:47;;;;;;;27.47;9.43;;;;;;;;;;5075990;28;20198;-80
2024/01/09 02:11:15;;;;;;;26.17;10.17;;;;;;;;;;5074731;28;20231;-80
2024/01/09 02:13:42;;;;;;;28.50;8.67;;;;;;;;;;5074449;28;20258;-80
2024/01/09 02:16:09;;;;;;;22.60;10.03;;;;;;;;;;5076360;28;20206;-80
2024/01/09 02:18:36;;;;;;;23.00;8.43;;;;;;;;;;5074555;28;20278;-80
2024/01/09 02:21:03;;;;;;;27.87;9.53;;;;;;;;;;5075350;28;20207;-81
2024/01/09 02:23:30;;;;;;;38.47;10.87;;;;;;;;;;5075757;28;20207;-80
2024/01/09 02:25:58;;;;;;;30.83;11.47;;;;;;;;;;5075232;28;20207;-80
2024/01/09 02:28:44;;;;;;;27.87;10.80;;;;;;;;;;5074128;28;20880;-80
2024/01/09 02:31:12;;;;;;;28.40;10.77;;;;;;;;;;5075322;28;20219;-89
2024/01/09 02:33:40;;;;;;;27.50;11.50;;;;;;;;;;5059481;28;20187;-91
2024/01/09 02:36:07;;;;;;;29.93;10.87;;;;;;;;;;5075154;28;20304;-81
2024/01/09 02:38:34;;;;;;;31.17;10.17;;;;;;;;;;5075280;28;20196;-81
2024/01/09 02:41:01;;;;;;;25.17;10.70;;;;;;;;;;5074382;28;20191;-80
2024/01/09 02:43:28;;;;;;;24.43;11.40;;;;;;;;;;5074238;28;20597;-80
2024/01/09 02:45:56;;;;;;;23.83;10.03;;;;;;;;;;5075999;28;20191;-80
2024/01/09 02:48:23;;;;;;;21.33;9.87;;;;;;;;;;5076271;28;20207;-81
2024/01/09 02:50:50;;;;;;;31.40;11.20;;;;;;;;;;5075789;28;20222;-80
2024/01/09 02:53:17;;;;;;;35.20;12.03;;;;;;;;;;5075674;28;20203;-80
2024/01/09 02:55:44;;;;;;;25.77;9.43;;;;;;;;;;5074494;28;20219;-81
2024/01/09 02:58:11;;;;;;;39.53;13.33;;;;;;;;;;5074868;28;20215;-81
2024/01/09 03:00:38;;;;;;;27.50;11.17;;;;;;;;;;5075678;28;20199;-81
2024/01/09 03:03:05;;;;;;;22.87;9.00;;;;;;;;;;5074413;28;20200;-81
2024/01/09 03:05:33;;;;;;;23.50;9.67;;;;;;;;;;5075598;28;20201;-80
2024/01/09 03:08:01;;;;;;;32.63;10.23;;;;;;;;;;5075037;28;20298;-81
2024/01/09 03:10:28;;;;;;;36.50;12.57;;;;;;;;;;5075284;28;20227;-80
2024/01/09 03:12:55;;;;;;;38.53;13.67;;;;;;;;;;5075660;28;20200;-80
2024/01/09 03:15:22;;;;;;;26.90;11.67;;;;;;;;;;5074539;28;20199;-80
2024/01/09 03:17:51;;;;;;;32.57;11.37;;;;;;;;;;5074943;28;20287;-80
2024/01/09 03:20:19;;;;;;;28.17;11.03;;;;;;;;;;5075273;28;20200;-79
2024/01/09 03:22:46;;;;;;;31.97;12.43;;;;;;;;;;5075076;28;20195;-80
2024/01/09 03:25:13;;;;;;;26.27;10.67;;;;;;;;;;5074628;28;20214;-78
2024/01/09 03:27:40;;;;;;;30.13;9.23;;;;;;;;;;5073360;28;20207;-80
2024/01/09 03:30:08;;;;;;;20.03;9.50;;;;;;;;;;5073665;28;20219;-78
2024/01/09 03:32:35;;;;;;;33.50;12.73;;;;;;;;;;5072811;28;20195;-78
2024/01/09 03:35:03;;;;;;;28.10;11.13;;;;;;;;;;5074297;28;20270;-78
2024/01/09 03:37:30;;;;;;;22.30;8.87;;;;;;;;;;5073974;28;20237;-79
2024/01/09 03:39:57;;;;;;;30.20;10.57;;;;;;;;;;5074196;28;20252;-80
2024/01/09 03:42:24;;;;;;;21.07;9.37;;;;;;;;;;5073795;28;20783;-80
2024/01/09 03:44:52;;;;;;;24.27;9.13;;;;;;;;;;5074636;28;20222;-80
2024/01/09 03:47:19;;;;;;;29.93;9.97;;;;;;;;;;5073826;28;20676;-80
2024/01/09 03:49:46;;;;;;;32.40;12.63;;;;;;;;;;5072911;28;20214;-80
2024/01/09 03:52:13;;;;;;;31.00;10.77;;;;;;;;;;5073267;28;20211;-79
2024/01/09 03:54:40;;;;;;;30.03;11.77;;;;;;;;;;5073611;28;20636;-80
2024/01/09 03:57:08;;;;;;;27.90;10.33;;;;;;;;;;5073328;28;20202;-77
2024/01/09 03:59:35;;;;;;;27.97;10.47;;;;;;;;;;5074037;28;20713;-89
2024/01/09 04:02:02;;;;;;;27.57;10.30;;;;;;;;;;5073413;28;20187;-78
2024/01/09 04:04:29;;;;;;;22.20;10.27;;;;;;;;;;5072275;28;20572;-78
2024/01/09 04:06:56;;;;;;;19.77;9.43;;;;;;;;;;5073599;28;20194;-78
2024/01/09 04:09:23;;;;;;;14.93;9.33;;;;;;;;;;5073103;28;20207;-80
2024/01/09 04:11:50;;;;;;;27.23;10.80;;;;;;;;;;5073074;28;20722;-78
2024/01/09 04:14:18;;;;;;;38.47;10.70;;;;;;;;;;5073203;28;20191;-78
2024/01/09 04:16:48;;;;;;;24.37;10.90;;;;;;;;;;5073650;28;20281;-81
2024/01/09 04:19:16;;;;;;;42.50;12.80;;;;;;;;;;5073507;28;20187;-81
2024/01/09 04:21:43;;;;;;;35.67;13.40;;;;;;;;;;5055648;28;20207;-79
2024/01/09 04:24:10;;;;;;;32.20;12.00;;;;;;;;;;5073035;28;20211;-81
2024/01/09 04:26:37;;;;;;;24.83;11.23;;;;;;;;;;5073572;28;20202;-82
2024/01/09 04:29:05;;;;;;;25.80;11.30;;;;;;;;;;5073408;28;20203;-82
2024/01/09 04:31:32;;;;;;;31.90;11.37;;;;;;;;;;5071722;28;20220;-81
2024/01/09 04:33:59;;;;;;;20.30;10.37;;;;;;;;;;5071389;28;20215;-81
2024/01/09 04:36:26;;;;;;;28.33;11.87;;;;;;;;;;5071881;28;20238;-82
2024/01/09 04:38:53;;;;;;;39.57;11.67;;;;;;;;;;5070185;28;20207;-82
2024/01/09 04:41:20;;;;;;;57.97;15.20;;;;;;;;;;5072765;28;20270;-81
2024/01/09 04:43:48;;;;;;;41.27;14.77;;;;;;;;;;5073227;28;20196;-81
2024/01/09 04:46:15;;;;;;;45.20;16.10;;;;;;;;;;5072248;28;20227;-80
2024/01/09 04:48:42;;;;;;;46.77;18.90;;;;;;;;;;5072834;28;20218;-80
2024/01/09 04:51:09;;;;;;;38.47;13.87;;;;;;;;;;5073770;28;20710;-82
2024/01/09 04:53:37;;;;;;;36.13;15.43;;;;;;;;;;5073532;28;20203;-82
2024/01/09 04:56:04;;;;;;;37.43;13.77;;;;;;;;;;5072822;28;20203;-82
2024/01/09 04:58:31;;;;;;;47.57;16.50;;;;;;;;;;5074565;28;20866;-81
2024/01/09 05:00:58;;;;;;;53.33;18.83;;;;;;;;;;5074108;28;20218;-81
2024/01/09 05:03:25;;;;;;;33.83;14.23;;;;;;;;;;5074924;28;20195;-82
2024/01/09 05:05:52;;;;;;;29.83;11.50;;;;;;;;;;5074707;28;20207;-82
2024/01/09 05:08:20;;;;;;;40.13;12.37;;;;;;;;;;5067501;28;20238;-82
2024/01/09 05:10:47;;;;;;;34.47;13.40;;;;;;;;;;5073253;28;20322;-83
2024/01/09 05:13:14;;;;;;;26.90;10.70;;;;;;;;;;5071321;28;20572;-83
2024/01/09 05:15:41;;;;;;;26.17;11.60;;;;;;;;;;5073026;28;20868;-81
2024/01/09 05:18:08;;;;;;;36.27;12.77;;;;;;;;;;5073569;28;20223;-82
2024/01/09 05:20:36;;;;;;;21.17;12.57;;;;;;;;;;5073317;28;20235;-82
2024/01/09 05:23:03;;;;;;;39.53;14.00;;;;;;;;;;5076902;28;20997;-82
2024/01/09 05:25:30;;;;;;;43.20;14.33;;;;;;;;;;5076552;28;20225;-83
2024/01/09 05:27:58;;;;;;;34.43;15.10;;;;;;;;;;5082534;28;20242;-82
2024/01/09 05:30:25;;;;;;;45.23;15.43;;;;;;;;;;5079085;28;20238;-82
2024/01/09 05:32:53;;;;;;;63.03;17.47;;;;;;;;;;5076861;28;20561;-82
2024/01/09 05:35:20;;;;;;;36.23;13.47;;;;;;;;;;5077156;28;20688;-82
2024/01/09 05:37:47;;;;;;;43.97;13.10;;;;;;;;;;5076947;28;20218;-83
2024/01/09 05:40:16;;;;;;;34.13;11.83;;;;;;;;;;5079513;28;20215;-82
2024/01/09 05:42:44;;;;;;;25.20;11.17;;;;;;;;;;5078588;28;20227;-83
2024/01/09 05:45:11;;;;;;;36.83;13.70;;;;;;;;;;5079845;28;20235;-81
2024/01/09 05:47:38;;;;;;;58.07;22.73;;;;;;;;;;5075679;28;20211;-80
2024/01/09 05:50:06;;;;;;;43.97;16.27;;;;;;;;;;5074290;28;20241;-80
2024/01/09 05:52:36;;;;;;;33.70;15.13;;;;;;;;;;5072351;28;20223;-81
2024/01/09 05:55:04;;;;;;;45.03;17.57;;;;;;;;;;5056467;28;20231;-79
2024/01/09 05:57:31;;;;;;;58.37;17.77;;;;;;;;;;5073930;28;20230;-80
2024/01/09 05:59:59;;;;;;;50.70;20.13;;;;;;;;;;5074131;28;20231;-79
2024/01/09 06:02:26;;;;;;;92.80;26.87;;;;;;;;;;5076824;28;20215;-79
2024/01/09 06:04:54;;;;;;;83.53;25.93;;;;;;;;;;5077726;28;20263;-79
2024/01/09 06:07:22;;;;;;;95.13;29.07;;;;;;;;;;5073925;28;20281;-79
2024/01/09 06:09:49;;;;;;;82.90;28.27;;;;;;;;;;5075518;28;20229;-79
2024/01/09 06:12:16;;;;;;;65.50;24.43;;;;;;;;;;5076791;28;20281;-79
2024/01/09 06:14:43;;;;;;;83.13;23.33;;;;;;;;;;5074766;28;20246;-79
2024/01/09 06:17:12;;;;;;;97.03;27.63;;;;;;;;;;5074528;28;20667;-80
2024/01/09 06:19:39;;;;;;;87.63;28.27;;;;;;;;;;5075270;28;20238;-81
2024/01/09 06:22:07;;;;;;;52.47;19.53;;;;;;;;;;5076734;28;20215;-81
2024/01/09 06:24:34;;;;;;;63.03;21.73;;;;;;;;;;5076510;28;20617;-81
2024/01/09 06:27:01;;;;;;;54.23;18.43;;;;;;;;;;5076531;28;20207;-79
2024/01/09 06:29:29;;;;;;;50.30;18.60;;;;;;;;;;5075868;28;20199;-82
2024/01/09 06:31:57;;;;;;;32.93;15.60;;;;;;;;;;5075591;28;20699;-82
2024/01/09 06:34:24;;;;;;;35.77;15.20;;;;;;;;;;5075039;28;20238;-81
2024/01/09 06:36:51;;;;;;;37.90;13.83;;;;;;;;;;5075793;28;20261;-82
2024/01/09 06:39:18;;;;;;;50.80;18.17;;;;;;;;;;5075599;28;20206;-81
2024/01/09 06:41:46;;;;;;;33.67;14.27;;;;;;;;;;5075913;28;20243;-82
2024/01/09 06:44:13;;;;;;;41.77;13.93;;;;;;;;;;5076358;28;20284;-81
2024/01/09 06:46:40;;;;;;;41.97;15.17;;;;;;;;;;5074215;28;20245;-81
2024/01/09 06:49:07;;;;;;;43.03;16.77;;;;;;;;;;5075174;28;20641;-81
2024/01/09 06:51:35;;;;;;;40.57;15.70;;;;;;;;;;5075364;28;20227;-82
2024/01/09 06:54:02;;;;;;;40.83;16.93;;;;;;;;;;5074964;28;20242;-81
2024/01/09 06:56:29;;;;;;;78.30;16.87;;;;;;;;;;5075321;28;20215;-82
2024/01/09 06:58:56;;;;;;;43.83;16.40;;;;;;;;;;5075195;28;20199;-82
2024/01/09 07:01:24;;;;;;;40.73;14.83;;;;;;;;;;5076691;28;20249;-81
2024/01/09 07:03:51;;;;;;;34.63;14.43;;;;;;;;;;5075787;28;20192;-81
2024/01/09 07:06:18;;;;;;;53.63;15.83;;;;;;;;;;5078202;28;20199;-81
2024/01/09 07:08:45;;;;;;;45.07;17.63;;;;;;;;;;5074729;28;20199;-81
2024/01/09 07:11:13;;;;;;;47.83;16.47;;;;;;;;;;5074890;28;20269;-81
2024/01/09 07:13:40;;;;;;;39.33;17.87;;;;;;;;;;5074913;28;20195;-81
2024/01/09 07:16:07;;;;;;;45.90;17.13;;;;;;;;;;5073208;28;20203;-81
2024/01/09 07:18:34;;;;;;;48.03;17.80;;;;;;;;;;5074595;28;20231;-82
2024/01/09 07:21:01;;;;;;;38.60;16.47;;;;;;;;;;5073260;28;20217;-81
2024/01/09 07:23:28;;;;;;;38.97;16.97;;;;;;;;;;5074132;28;20204;-81
2024/01/09 07:25:56;;;;;;;47.13;18.63;;;;;;;;;;5074582;28;20199;-81
2024/01/09 07:28:23;;;;;;;49.47;19.40;;;;;;;;;;5073809;28;20199;-82
2024/01/09 07:30:52;;;;;;;53.93;17.80;;;;;;;;;;5075140;28;20230;-82
2024/01/09 07:33:19;;;;;;;43.80;15.90;;;;;;;;;;5074576;28;20729;-82
2024/01/09 07:35:46;;;;;;;49.70;18.20;;;;;;;;;;5074559;28;20235;-82
2024/01/09 07:38:13;;;;;;;42.67;18.87;;;;;;;;;;5072231;28;20290;-82
2024/01/09 07:40:41;;;;;;;52.70;20.33;;;;;;;;;;5071495;28;20207;-82
2024/01/09 07:43:08;;;;;;;53.07;18.07;;;;;;;;;;5073099;28;20210;-82
2024/01/09 07:45:35;;;;;;;40.87;19.10;;;;;;;;;;5073979;28;20195;-82
2024/01/09 07:48:03;;;;;;;58.87;21.33;;;;;;;;;;5074750;28;20199;-82
2024/01/09 07:50:31;;;;;;;51.73;18.37;;;;;;;;;;5080530;28;20196;-82
2024/01/09 07:52:58;;;;;;;56.87;20.33;;;;;;;;;;5074587;28;20256;-80
2024/01/09 07:55:27;;;;;;;56.03;20.90;;;;;;;;;;5075171;28;20671;-81
2024/01/09 07:57:54;;;;;;;51.37;22.23;;;;;;;;;;5073902;28;20702;-82
2024/01/09 08:00:21;;;;;;;62.20;21.93;;;;;;;;;;5074129;28;20207;-82
2024/01/09 08:02:48;;;;;;;69.07;24.43;;;;;;;;;;5074383;28;20199;-82
2024/01/09 08:05:15;;;;;;;68.93;22.43;;;;;;;;;;5072294;28;20207;-82
2024/01/09 08:07:43;;;;;;;65.37;22.70;;;;;;;;;;5076314;28;20678;-82
2024/01/09 08:10:10;;;;;;;54.93;22.13;;;;;;;;;;5076263;28;20207;-83
2024/01/09 08:12:37;;;;;;;50.30;18.37;;;;;;;;;;5074063;28;20250;-82
2024/01/09 08:15:05;;;;;;;50.10;19.67;;;;;;;;;;5074236;28;20191;-82
2024/01/09 08:17:32;;;;;;;60.83;19.93;;;;;;;;;;5072761;28;20550;-82
2024/01/09 08:20:00;;;;;;;62.40;21.90;;;;;;;;;;5073701;28;20203;-82
2024/01/09 08:22:28;;;;;;;61.67;21.17;;;;;;;;;;5072556;28;20277;-82
2024/01/09 08:24:55;;;;;;;65.30;22.70;;;;;;;;;;5073125;28;20207;-82
2024/01/09 08:27:22;;;;;;;61.20;20.40;;;;;;;;;;5073288;28;20318;-82
2024/01/09 08:29:50;;;;;;;62.50;21.07;;;;;;;;;;5072355;28;20199;-81
2024/01/09 08:32:18;;;;;;;50.40;19.00;;;;;;;;;;5073036;28;20223;-82
2024/01/09 08:34:46;;;;;;;54.57;19.40;;;;;;;;;;5073330;28;20238;-81
2024/01/09 08:37:13;;;;;;;51.57;18.80;;;;;;;;;;5073913;28;20222;-82
2024/01/09 08:39:40;;;;;;;51.97;19.80;;;;;;;;;;5074093;28;20582;-81
2024/01/09 08:42:07;;;;;;;49.40;17.43;;;;;;;;;;5073109;28;20199;-81
2024/01/09 08:44:35;;;;;;;42.30;18.93;;;;;;;;;;5072891;28;20196;-81
2024/01/09 08:47:02;;;;;;;42.70;17.27;;;;;;;;;;5073091;28;20249;-82
2024/01/09 08:49:29;;;;;;;41.27;17.13;;;;;;;;;;5072728;28;20210;-81
2024/01/09 08:51:56;;;;;;;50.70;18.30;;;;;;;;;;5073234;28;20223;-81
2024/01/09 08:54:23;;;;;;;50.13;20.93;;;;;;;;;;5072534;28;20195;-81
2024/01/09 08:56:50;;;;;;;65.00;19.53;;;;;;;;;;5071942;28;20205;-81
2024/01/09 08:59:17;;;;;;;57.50;21.93;;;;;;;;;;5072787;28;20265;-82
2024/01/09 09:01:44;;;;;;;51.87;20.10;;;;;;;;;;5071887;28;20242;-81
2024/01/09 09:04:12;;;;;;;56.40;20.63;;;;;;;;;;5072713;28;20192;-81
2024/01/09 09:06:39;;;;;;;54.57;20.40;;;;;;;;;;5073164;28;20202;-81
2024/01/09 09:09:06;;;;;;;58.27;19.47;;;;;;;;;;5073994;28;20645;-81
2024/01/09 09:11:33;;;;;;;52.37;19.00;;;;;;;;;;5072714;28;20211;-81
2024/01/09 09:14:00;;;;;;;60.47;21.33;;;;;;;;;;5072906;28;20277;-82
2024/01/09 09:16:29;;;;;;;58.83;20.57;;;;;;;;;;5072441;28;20195;-82
2024/01/09 09:18:56;;;;;;;55.50;20.57;;;;;;;;;;5072996;28;20191;-81
2024/01/09 09:21:23;;;;;;;53.70;20.60;;;;;;;;;;5072218;28;20195;-81
2024/01/09 09:23:50;;;;;;;56.60;22.73;;;;;;;;;;5073028;28;20203;-82
2024/01/09 09:26:17;;;;;;;55.33;21.57;;;;;;;;;;5072603;28;20203;-82
2024/01/09 09:28:47;;;;;;;57.80;20.17;;;;;;;;;;5072643;28;20248;-81
2024/01/09 09:31:32;;;;;;;63.27;19.73;;;;;;;;;;5072361;28;20268;-81
2024/01/09 09:33:59;;;;;;;52.10;19.23;;;;;;;;;;5054813;28;20648;-82
2024/01/09 09:36:27;;;;;;;50.37;19.33;;;;;;;;;;5054974;28;20230;-82
2024/01/09 09:38:55;;;;;;;56.23;19.43;;;;;;;;;;5071288;28;20203;-81
2024/01/09 09:41:23;;;;;;;47.40;18.47;;;;;;;;;;5054990;28;20187;-82
2024/01/09 09:43:58;;;;;;;53.93;18.10;;;;;;;;;;5071896;28;20187;-83
2024/01/09 09:46:29;;;;;;;45.57;16.70;;;;;;;;;;5071196;28;20211;-83
2024/01/09 09:48:57;;;;;;;44.90;16.77;;;;;;;;;;5071761;28;20586;-82
2024/01/09 09:51:25;;;;;;;43.57;16.80;;;;;;;;;;5071235;28;20220;-82
2024/01/09 09:53:54;;;;;;;48.17;18.60;;;;;;;;;;5072721;28;20195;-82
2024/01/09 09:56:22;;;;;;;49.90;17.83;;;;;;;;;;5071999;28;20640;-82
2024/01/09 09:58:50;;;;;;;63.47;18.60;;;;;;;;;;5072244;28;20204;-83
2024/01/09 10:01:17;;;;;;;48.23;19.33;;;;;;;;;;5072745;28;20200;-83
2024/01/09 10:04:02;;;;;;;46.53;16.60;;;;;;;;;;5071542;28;20196;-83
2024/01/09 10:06:31;;;;;;;40.93;17.03;;;;;;;;;;5071887;28;20216;-83
2024/01/09 10:09:01;;;;;;;37.00;15.70;;;;;;;;;;5074886;28;20199;-82
2024/01/09 10:11:29;;;;;;;44.73;17.20;;;;;;;;;;5075044;28;20223;-83
2024/01/09 10:13:56;;;;;;;75.30;21.40;;;;;;;;;;5077680;28;20202;-83
2024/01/09 10:16:24;;;;;;;59.13;19.23;;;;;;;;;;5074821;28;20192;-83
2024/01/09 10:18:54;;;;;;;65.40;21.13;;;;;;;;;;5076208;28;20245;-82
2024/01/09 10:21:22;;;;;;;54.10;19.60;;;;;;;;;;5074284;28;20656;-83
2024/01/09 10:23:50;;;;;;;53.40;18.47;;;;;;;;;;5076176;28;20195;-83
2024/01/09 10:26:17;;;;;;;76.80;22.20;;;;;;;;;;5074367;28;20632;-83
2024/01/09 10:28:46;;;;;;;71.73;20.60;;;;;;;;;;5076209;28;20195;-83
2024/01/09 10:31:14;;;;;;;82.20;24.87;;;;;;;;;;5075891;28;20210;-82
2024/01/09 10:33:41;;;;;;;47.57;18.67;;;;;;;;;;5074610;28;20195;-83
2024/01/09 10:36:09;;;;;;;50.57;18.37;;;;;;;;;;5077045;28;20238;-82
2024/01/09 10:38:36;;;;;;;44.53;16.10;;;;;;;;;;5059239;28;20192;-82
2024/01/09 10:41:17;;;;;;;48.03;15.60;;;;;;;;;;5076597;28;20168;-83
2024/01/09 10:43:44;;;;;;;44.57;15.30;;;;;;;;;;5075169;28;20629;-82
2024/01/09 10:46:11;;;;;;;36.20;13.40;;;;;;;;;;5075271;28;20203;-82
2024/01/09 10:48:40;;;;;;;36.17;13.37;;;;;;;;;;5075481;28;20548;-83
2024/01/09 10:51:10;;;;;;;38.83;12.73;;;;;;;;;;5075940;28;20196;-83
2024/01/09 10:53:39;;;;;;;34.53;13.03;;;;;;;;;;5075533;28;20215;-83
2024/01/09 10:56:08;;;;;;;34.70;12.23;;;;;;;;;;5074361;28;20257;-83
2024/01/09 10:58:37;;;;;;;30.17;12.47;;;;;;;;;;5075558;28;20547;-83
2024/01/09 11:01:04;;;;;;;34.83;11.53;;;;;;;;;;5073947;28;20195;-83
2024/01/09 11:03:31;;;;;;;31.17;12.83;;;;;;;;;;5075517;28;20647;-83
2024/01/09 11:05:59;;;;;;;28.47;11.70;;;;;;;;;;5075569;28;20267;-83
2024/01/09 11:08:27;;;;;;;28.77;10.23;;;;;;;;;;5075734;28;20188;-83
2024/01/09 11:10:55;;;;;;;30.63;12.37;;;;;;;;;;5073555;28;20211;-83
2024/01/09 11:13:23;;;;;;;32.33;11.37;;;;;;;;;;5073844;28;20672;-82
2024/01/09 11:15:54;;;;;;;25.77;10.47;;;;;;;;;;5073207;28;20211;-83
2024/01/09 11:18:22;;;;;;;29.13;12.27;;;;;;;;;;5074435;28;20698;-82
2024/01/09 11:21:03;;;;;;;58.47;17.00;;;;;;;;;;5073816;28;20206;-83
2024/01/09 11:23:43;;;;;;;39.33;14.00;;;;;;;;;;5073936;28;20183;-83
2024/01/09 11:26:14;;;;;;;45.97;13.80;;;;;;;;;;5074809;28;20270;-83
2024/01/09 11:28:47;;;;;;;33.20;13.60;;;;;;;;;;5073980;28;20203;-83
2024/01/09 11:31:23;;;;;;;29.80;11.70;;;;;;;;;;5073845;28;20198;-83
2024/01/09 11:33:51;;;;;;;32.13;12.13;;;;;;;;;;5073487;28;20219;-83
2024/01/09 11:36:29;;;;;;;35.03;12.30;;;;;;;;;;5073249;28;20227;-83
2024/01/09 11:38:57;;;;;;;39.67;11.93;;;;;;;;;;5073388;28;20245;-83
2024/01/09 11:41:31;;;;;;;30.83;11.00;;;;;;;;;;5074858;28;20199;-83
2024/01/09 11:44:06;;;;;;;29.40;12.43;;;;;;;;;;5075254;28;20195;-83
2024/01/09 11:46:35;;;;;;;26.00;12.30;;;;;;;;;;5073194;28;20245;-83
2024/01/09 11:49:04;;;;;;;38.37;13.77;;;;;;;;;;5074480;28;20217;-83
2024/01/09 11:51:35;;;;;;;35.37;12.30;;;;;;;;;;5074294;28;20223;-83
2024/01/09 11:54:04;;;;;;;36.73;11.87;;;;;;;;;;5074356;28;20253;-83
2024/01/09 11:56:31;;;;;;;25.10;10.90;;;;;;;;;;5074297;28;20211;-83
2024/01/09 11:59:00;;;;;;;26.63;11.10;;;;;;;;;;5074431;28;20568;-83
2024/01/09 12:01:27;;;;;;;24.50;10.70;;;;;;;;;;5074091;28;20203;-83
2024/01/09 12:03:58;;;;;;;31.30;12.13;;;;;;;;;;5074532;28;20199;-83
2024/01/09 12:06:30;;;;;;;36.50;12.43;;;;;;;;;;5072522;28;20306;-83
2024/01/09 12:08:59;;;;;;;33.03;11.80;;;;;;;;;;5074216;28;20199;-83
2024/01/09 12:11:27;;;;;;;37.23;14.80;;;;;;;;;;5073523;28;20538;-83
2024/01/09 12:13:59;;;;;;;33.03;12.33;;;;;;;;;;5073609;28;20743;-83
2024/01/09 12:16:28;;;;;;;26.77;10.80;;;;;;;;;;5074229;28;20938;-83
2024/01/09 12:18:57;;;;;;;38.87;15.33;;;;;;;;;;5073825;28;20199;-83
2024/01/09 12:21:28;;;;;;;35.10;12.27;;;;;;;;;;5072301;28;20671;-83
2024/01/09 12:23:59;;;;;;;38.43;12.30;;;;;;;;;;5072456;28;20751;-83
2024/01/09 12:26:29;;;;;;;30.70;12.67;;;;;;;;;;5073855;28;20210;-83
2024/01/09 12:28:57;;;;;;;22.23;10.63;;;;;;;;;;5074885;28;20199;-83
2024/01/09 12:31:25;;;;;;;37.20;11.63;;;;;;;;;;5056500;28;20191;-83
2024/01/09 12:33:55;;;;;;;28.43;11.20;;;;;;;;;;5073089;28;20215;-83
2024/01/09 12:36:25;;;;;;;34.00;12.27;;;;;;;;;;5073778;28;20245;-83
2024/01/09 12:38:53;;;;;;;28.63;13.10;;;;;;;;;;5055572;28;20707;-84
2024/01/09 12:41:23;;;;;;;30.07;11.90;;;;;;;;;;5073462;28;20231;-84
2024/01/09 12:43:52;;;;;;;35.27;14.07;;;;;;;;;;5073346;28;20230;-85
2024/01/09 12:46:20;;;;;;;42.50;13.07;;;;;;;;;;5075103;28;20227;-84
2024/01/09 12:48:49;;;;;;;38.67;13.60;;;;;;;;;;5062679;28;20863;-85
2024/01/09 12:51:17;;;;;;;32.87;13.13;;;;;;;;;;5077491;28;20680;-85
2024/01/09 12:53:44;;;;;;;33.97;12.60;;;;;;;;;;5075189;28;20257;-84
2024/01/09 12:56:13;;;;;;;30.30;12.30;;;;;;;;;;5074263;28;20245;-85
2024/01/09 12:58:46;;;;;;;37.63;12.73;;;;;;;;;;5057057;28;20235;-84
2024/01/09 13:01:14;;;;;;;39.33;14.70;;;;;;;;;;5072374;28;20250;-84
2024/01/09 13:03:42;;;;;;;41.07;12.90;;;;;;;;;;5060150;28;20632;-82
2024/01/09 13:06:11;;;;;;;32.20;12.87;;;;;;;;;;5075508;28;20268;-85
2024/01/09 13:08:39;;;;;;;40.87;13.50;;;;;;;;;;5056804;28;20308;-84
2024/01/09 13:11:09;;;;;;;38.83;14.10;;;;;;;;;;5072881;28;20220;-84
2024/01/09 13:13:39;;;;;;;41.07;13.83;;;;;;;;;;5074039;28;20266;-84
2024/01/09 13:16:07;;;;;;;31.17;12.77;;;;;;;;;;5071563;28;20688;-84
2024/01/09 13:18:34;;;;;;;36.30;13.77;;;;;;;;;;5055667;28;20235;-84
2024/01/09 13:21:02;;;;;;;35.33;14.00;;;;;;;;;;5074917;28;21019;-84
2024/01/09 13:23:30;;;;;;;40.33;14.67;;;;;;;;;;5072890;28;20227;-82
2024/01/09 13:26:02;;;;;;;39.80;12.70;;;;;;;;;;5073570;28;20223;-83
2024/01/09 13:28:29;;;;;;;41.90;13.93;;;;;;;;;;5072077;28;20693;-84
2024/01/09 13:30:57;;;;;;;39.40;14.07;;;;;;;;;;5073049;28;20261;-84
2024/01/09 13:33:26;;;;;;;51.20;15.33;;;;;;;;;;5075014;28;20243;-84
2024/01/09 13:35:55;;;;;;;33.83;14.53;;;;;;;;;;5076171;28;20296;-83
2024/01/09 13:38:23;;;;;;;41.70;14.17;;;;;;;;;;5071668;28;20285;-83
2024/01/09 13:40:50;;;;;;;38.47;14.13;;;;;;;;;;5073177;28;20215;-83
2024/01/09 13:43:17;;;;;;;33.87;12.97;;;;;;;;;;5077303;28;20231;-83
2024/01/09 13:45:45;;;;;;;35.13;14.17;;;;;;;;;;5078449;28;20219;-83
2024/01/09 13:48:12;;;;;;;30.63;12.60;;;;;;;;;;5077346;28;20231;-83
2024/01/09 13:50:40;;;;;;;38.73;13.90;;;;;;;;;;5077003;28;20238;-83
2024/01/09 13:53:10;;;;;;;38.53;12.97;;;;;;;;;;5076133;28;20285;-83
2024/01/09 13:55:37;;;;;;;29.93;13.27;;;;;;;;;;5076487;28;20276;-83
2024/01/09 13:58:04;;;;;;;33.37;12.97;;;;;;;;;;5076317;28;20235;-82
2024/01/09 14:00:32;;;;;;;32.63;11.23;;;;;;;;;;5075179;28;20216;-83
2024/01/09 14:03:00;;;;;;;34.70;11.40;;;;;;;;;;5076374;28;20243;-83
2024/01/09 14:05:28;;;;;;;30.13;12.23;;;;;;;;;;5080890;28;20215;-83
2024/01/09 14:07:56;;;;;;;34.10;12.90;;;;;;;;;;5082262;28;20322;-83
2024/01/09 14:10:23;;;;;;;32.97;13.40;;;;;;;;;;5079657;28;20222;-83
2024/01/09 14:12:51;;;;;;;41.13;14.27;;;;;;;;;;5075307;28;20239;-83
2024/01/09 14:15:18;;;;;;;31.57;12.80;;;;;;;;;;5075418;28;20792;-82
2024/01/09 14:17:45;;;;;;;35.07;13.47;;;;;;;;;;5075819;28;20218;-82
2024/01/09 14:20:13;;;;;;;33.83;13.43;;;;;;;;;;5075076;28;20247;-82
2024/01/09 14:22:40;;;;;;;34.60;13.80;;;;;;;;;;5074053;28;20227;-83